Time;durP1;ratioP1;P1;durP2;ratioP2;P2;SDS_P1;SDS_P2;PMS_P1;PMS_P2;Temp;Humidity;BMP_temperature;BMP_pressure;BME280_temperature;BME280_humidity;BME280_pressure;Samples;Min_cycle;Max_cycle;Signal;HPM_P1;HPM_P2
2023/09/13 00:01:01;;;;;;;;;;;27.20;74.10;;;;;;5026411;28;42999;-79
2023/09/13 00:03:26;;;;;;;;;;;27.20;74.10;;;;;;5025345;28;43647;-84
2023/09/13 00:05:52;;;;;;;;;;;27.30;74.10;;;;;;5025168;28;43035;-81
2023/09/13 00:08:17;;;;;;;;;;;27.20;73.90;;;;;;5026872;28;43493;-79
2023/09/13 00:10:46;;;;;;;;;;;27.30;73.90;;;;;;5027182;28;42816;-84
2023/09/13 00:13:12;;;;;;;;;;;27.00;72.00;;;;;;5026745;28;42977;-80
2023/09/13 00:15:43;;;;;;;;;;;27.00;74.00;;;;;;5026631;28;42856;-80
2023/09/13 00:18:08;;;;;;;;;;;27.30;71.50;;;;;;5026715;28;42934;-81
2023/09/13 00:20:34;;;;;;;;;;;27.10;73.80;;;;;;5026806;28;42979;-84
2023/09/13 00:23:00;;;;;;;;;;;27.20;74.00;;;;;;5026727;28;42923;-82
2023/09/13 00:25:25;;;;;;;;;;;27.30;74.20;;;;;;5026530;28;42946;-84
2023/09/13 00:27:51;;;;;;;;;;;27.30;73.90;;;;;;5026464;28;43265;-82
2023/09/13 00:30:16;;;;;;;;;;;27.10;74.10;;;;;;5026265;28;42915;-85
2023/09/13 00:32:42;;;;;;;;;;;27.20;74.40;;;;;;5026536;28;43981;-80
2023/09/13 00:35:07;;;;;;;;;;;27.10;73.70;;;;;;5026420;28;42847;-84
2023/09/13 00:37:33;;;;;;;;;;;27.20;73.70;;;;;;5024428;28;43062;-84
2023/09/13 00:39:58;;;;;;;;;;;27.00;73.90;;;;;;5026488;28;42946;-81
2023/09/13 00:42:24;;;;;;;;;;;27.10;73.50;;;;;;5026586;28;43467;-84
2023/09/13 00:44:49;;;;;;;;;;;27.00;74.10;;;;;;5026415;28;42818;-81
2023/09/13 00:47:16;;;;;;;;;;;26.90;74.40;;;;;;5026073;28;43689;-80
2023/09/13 00:49:42;;;;;;;;;;;26.70;74.50;;;;;;5024526;28;42933;-83
2023/09/13 00:52:07;;;;;;;;;;;26.80;74.70;;;;;;5026040;28;42914;-80
2023/09/13 00:54:33;;;;;;;;;;;26.90;74.60;;;;;;5026567;28;42910;-83
2023/09/13 00:56:58;;;;;;;;;;;26.70;74.60;;;;;;5025467;28;42946;-82
2023/09/13 00:59:25;;;;;;;;;;;26.60;74.60;;;;;;5022112;28;42854;-87
2023/09/13 01:01:50;;;;;;;;;;;26.80;74.10;;;;;;5023599;28;43874;-86
2023/09/13 01:04:16;;;;;;;;;;;26.90;73.80;;;;;;5025409;28;42943;-86
2023/09/13 01:06:41;;;;;;;;;;;26.80;74.30;;;;;;5025223;28;43445;-87
2023/09/13 01:09:07;;;;;;;;;;;26.80;74.00;;;;;;5025327;28;42903;-85
2023/09/13 01:11:33;;;;;;;;;;;26.90;74.00;;;;;;5025171;28;43586;-87
2023/09/13 01:13:58;;;;;;;;;;;26.90;73.50;;;;;;5024384;28;42972;-87
2023/09/13 01:16:47;;;;;;;;;;;27.00;73.20;;;;;;5024190;28;43353;-86
2023/09/13 01:19:28;;;;;;;;;;;27.00;71.20;;;;;;5024090;28;43061;-87
2023/09/13 01:21:53;;;;;;;;;;;26.90;70.80;;;;;;5023725;28;42917;-86
2023/09/13 01:24:31;;;;;;;;;;;27.10;72.50;;;;;;5020810;28;43062;-85
2023/09/13 01:26:57;;;;;;;;;;;27.00;70.40;;;;;;5024254;28;42907;-85
2023/09/13 01:29:23;;;;;;;;;;;26.90;72.30;;;;;;5024468;28;42845;-84
2023/09/13 01:31:49;;;;;;;;;;;26.90;73.00;;;;;;5024784;28;43006;-86
2023/09/13 01:34:14;;;;;;;;;;;26.80;72.50;;;;;;5023008;28;42979;-86
2023/09/13 01:36:41;;;;;;;;;;;27.00;72.90;;;;;;5023063;28;44014;-85
2023/09/13 01:39:06;;;;;;;;;;;27.10;72.20;;;;;;5023805;28;43234;-87
2023/09/13 01:41:36;;;;;;;;;;;27.10;71.90;;;;;;5024638;28;43653;-85
2023/09/13 01:44:02;;;;;;;;;;;27.10;72.40;;;;;;5024489;28;42999;-86
2023/09/13 01:46:41;;;;;;;;;;;27.20;71.80;;;;;;5024044;28;42926;-90
2023/09/13 01:49:07;;;;;;;;;;;27.30;69.60;;;;;;5024536;28;42981;-83
2023/09/13 01:51:33;;;;;;;;;;;27.10;72.30;;;;;;5024410;28;43431;-86
2023/09/13 01:53:59;;;;;;;;;;;26.90;71.70;;;;;;5024912;28;42902;-85
2023/09/13 01:56:25;;;;;;;;;;;26.90;72.70;;;;;;5024879;28;43464;-82
2023/09/13 01:58:51;;;;;;;;;;;26.70;72.40;;;;;;5024945;28;43041;-88
2023/09/13 02:01:17;;;;;;;;;;;26.70;72.50;;;;;;5024867;28;43590;-83
2023/09/13 02:03:43;;;;;;;;;;;26.70;73.20;;;;;;5025125;28;42935;-89
2023/09/13 02:06:08;;;;;;;;;;;26.50;73.10;;;;;;5024970;28;42860;-83
2023/09/13 02:08:34;;;;;;;;;;;26.60;72.70;;;;;;5024693;28;42929;-88
2023/09/13 02:10:59;;;;;;;;;;;26.60;72.70;;;;;;5024520;28;42931;-85
2023/09/13 02:13:25;;;;;;;;;;;26.60;73.30;;;;;;5025178;28;42959;-85
2023/09/13 02:15:50;;;;;;;;;;;26.50;73.00;;;;;;5025246;28;42958;-87
2023/09/13 02:18:16;;;;;;;;;;;26.70;72.90;;;;;;5025537;28;42872;-83
2023/09/13 02:20:42;;;;;;;;;;;26.50;72.70;;;;;;5023529;28;43206;-84
2023/09/13 02:23:07;;;;;;;;;;;26.60;73.00;;;;;;5025018;28;42944;-83
2023/09/13 02:25:36;;;;;;;;;;;26.50;73.20;;;;;;5024940;28;42924;-91
2023/09/13 02:28:03;;;;;;;;;;;26.80;71.40;;;;;;5024961;28;42823;-91
2023/09/13 02:30:29;;;;;;;;;;;26.50;73.40;;;;;;5024706;28;43800;-83
2023/09/13 02:32:55;;;;;;;;;;;26.70;72.80;;;;;;5025033;28;42995;-85
2023/09/13 02:35:20;;;;;;;;;;;26.80;72.90;;;;;;5025315;28;42968;-87
2023/09/13 02:37:46;;;;;;;;;;;26.80;73.00;;;;;;5025766;28;42954;-92
2023/09/13 02:40:11;;;;;;;;;;;26.80;73.10;;;;;;5024818;28;42949;-83
2023/09/13 02:42:37;;;;;;;;;;;26.60;72.90;;;;;;5024978;28;42976;-83
2023/09/13 02:45:03;;;;;;;;;;;26.70;73.00;;;;;;5024375;28;42950;-93
2023/09/13 02:47:29;;;;;;;;;;;26.80;73.30;;;;;;5023127;28;43080;-89
2023/09/13 02:49:54;;;;;;;;;;;26.60;73.10;;;;;;5027333;28;43405;-93
2023/09/13 02:52:27;;;;;;;;;;;26.60;73.10;;;;;;5028062;28;42846;-91
2023/09/13 02:54:53;;;;;;;;;;;26.70;71.00;;;;;;5026156;28;44592;-83
2023/09/13 02:57:18;;;;;;;;;;;26.60;72.70;;;;;;5028042;28;43071;-82
2023/09/13 02:59:44;;;;;;;;;;;26.50;72.70;;;;;;5028415;28;42985;-82
2023/09/13 03:02:09;;;;;;;;;;;26.50;72.60;;;;;;5028421;28;43030;-91
2023/09/13 03:04:35;;;;;;;;;;;26.60;72.60;;;;;;5028465;28;42990;-85
2023/09/13 03:07:00;;;;;;;;;;;26.50;71.70;;;;;;5028183;28;42923;-92
2023/09/13 03:09:26;;;;;;;;;;;26.40;71.70;;;;;;5028045;28;42884;-83
2023/09/13 03:11:51;;;;;;;;;;;26.50;71.70;;;;;;5028616;28;42988;-90
2023/09/13 03:14:17;;;;;;;;;;;26.50;71.60;;;;;;5024585;28;43904;-85
2023/09/13 03:16:42;;;;;;;;;;;26.50;71.70;;;;;;5016650;28;43086;-88
2023/09/13 03:19:09;;;;;;;;;;;26.50;71.50;;;;;;5005809;28;43658;-89
2023/09/13 03:21:34;;;;;;;;;;;26.50;71.40;;;;;;5005080;28;42958;-87
2023/09/13 03:24:00;;;;;;;;;;;26.70;71.40;;;;;;5003143;28;42903;-85
2023/09/13 03:26:25;;;;;;;;;;;26.60;71.30;;;;;;5016364;28;43101;-87
2023/09/13 03:28:52;;;;;;;;;;;26.70;71.30;;;;;;5026094;28;42918;-89
2023/09/13 03:31:20;;;;;;;;;;;26.70;71.50;;;;;;5027105;28;43170;-88
2023/09/13 03:33:46;;;;;;;;;;;26.90;71.60;;;;;;5026469;28;42998;-88
2023/09/13 03:36:12;;;;;;;;;;;26.60;71.30;;;;;;5025287;28;43033;-90
2023/09/13 03:38:38;;;;;;;;;;;26.80;71.50;;;;;;5024903;28;44297;-87
2023/09/13 03:41:04;;;;;;;;;;;26.60;70.90;;;;;;5026953;28;42876;-89
2023/09/13 03:43:30;;;;;;;;;;;26.60;71.30;;;;;;5026649;28;42982;-85
2023/09/13 03:45:56;;;;;;;;;;;26.80;70.20;;;;;;5026805;28;42942;-85
2023/09/13 03:48:21;;;;;;;;;;;26.90;70.10;;;;;;5026827;28;44027;-87
2023/09/13 03:50:51;;;;;;;;;;;26.90;69.80;;;;;;5024154;28;43086;-86
2023/09/13 03:53:16;;;;;;;;;;;26.90;70.40;;;;;;5027060;28;42938;-87
2023/09/13 03:55:42;;;;;;;;;;;26.70;69.80;;;;;;5023145;28;42948;-86
2023/09/13 03:58:08;;;;;;;;;;;26.60;70.60;;;;;;5024919;28;43784;-89
2023/09/13 04:00:37;;;;;;;;;;;26.70;70.10;;;;;;5023972;28;42899;-88
2023/09/13 04:03:03;;;;;;;;;;;26.70;68.10;;;;;;5024816;28;45128;-87
2023/09/13 04:05:29;;;;;;;;;;;26.90;70.80;;;;;;5026545;28;42886;-87
2023/09/13 04:07:55;;;;;;;;;;;26.50;70.40;;;;;;5026457;28;43657;-86
2023/09/13 04:10:20;;;;;;;;;;;26.50;70.20;;;;;;5026506;28;42820;-87
2023/09/13 04:12:46;;;;;;;;;;;26.70;70.20;;;;;;5024915;28;44611;-88
2023/09/13 04:15:11;;;;;;;;;;;26.50;70.30;;;;;;5023298;28;42934;-88
2023/09/13 04:17:37;;;;;;;;;;;26.60;70.20;;;;;;5023431;28;43714;-87
2023/09/13 04:20:02;;;;;;;;;;;26.70;70.20;;;;;;5022272;28;43010;-88
2023/09/13 04:22:28;;;;;;;;;;;26.70;70.50;;;;;;5015663;28;44643;-87
2023/09/13 04:24:53;;;;;;;;;;;26.60;70.00;;;;;;5025254;28;43036;-87
2023/09/13 04:27:22;;;;;;;;;;;26.50;69.80;;;;;;5024235;28;43056;-88
2023/09/13 04:29:47;;;;;;;;;;;26.50;70.50;;;;;;5023863;28;43596;-88
2023/09/13 04:32:13;;;;;;;;;;;26.40;69.90;;;;;;5022817;28;43956;-88
2023/09/13 04:34:39;;;;;;;;;;;26.50;70.50;;;;;;5026190;28;42977;-87
2023/09/13 04:37:04;;;;;;;;;;;26.50;70.10;;;;;;5025997;28;42952;-87
2023/09/13 04:39:31;;;;;;;;;;;26.50;70.30;;;;;;5026467;28;42997;-88
2023/09/13 04:42:00;;;;;;;;;;;26.40;70.40;;;;;;5024320;28;43822;-90
2023/09/13 04:44:26;;;;;;;;;;;26.50;68.00;;;;;;5026094;28;42802;-81
2023/09/13 04:46:52;;;;;;;;;;;26.40;70.40;;;;;;5025625;28;43769;-87
2023/09/13 04:49:17;;;;;;;;;;;26.40;70.50;;;;;;5026222;28;43014;-86
2023/09/13 04:51:43;;;;;;;;;;;26.30;70.20;;;;;;5025308;28;42973;-86
2023/09/13 04:54:08;;;;;;;;;;;26.30;70.70;;;;;;5026068;28;43182;-81
2023/09/13 04:56:34;;;;;;;;;;;26.30;71.00;;;;;;5024339;28;45723;-81
2023/09/13 04:58:59;;;;;;;;;;;26.20;71.20;;;;;;5025629;28;42979;-84
2023/09/13 05:01:25;;;;;;;;;;;26.10;71.20;;;;;;5025360;28;43011;-83
2023/09/13 05:03:52;;;;;;;;;;;26.20;70.70;;;;;;5025144;28;43022;-80
2023/09/13 05:06:18;;;;;;;;;;;26.10;70.40;;;;;;5023666;28;44531;-79
2023/09/13 05:08:43;;;;;;;;;;;26.10;71.00;;;;;;5024476;28;42915;-79
2023/09/13 05:11:09;;;;;;;;;;;26.40;71.30;;;;;;5024218;28;43045;-85
2023/09/13 05:13:37;;;;;;;;;;;26.40;71.40;;;;;;5024913;28;43009;-83
2023/09/13 05:16:02;;;;;;;;;;;26.20;71.50;;;;;;5024851;28;43662;-82
2023/09/13 05:18:28;;;;;;;;;;;26.00;71.30;;;;;;5024258;28;43086;-83
2023/09/13 05:20:53;;;;;;;;;;;26.20;71.30;;;;;;5023394;28;43035;-84
2023/09/13 05:23:19;;;;;;;;;;;26.30;71.40;;;;;;5020848;28;44212;-86
2023/09/13 05:25:45;;;;;;;;;;;26.30;71.30;;;;;;5025501;28;42974;-78
2023/09/13 05:28:13;;;;;;;;;;;26.40;71.20;;;;;;5025134;28;42933;-79
2023/09/13 05:30:39;;;;;;;;;;;26.30;70.90;;;;;;5023448;28;42955;-79
2023/09/13 05:33:05;;;;;;;;;;;26.50;71.00;;;;;;5024927;28;43141;-79
2023/09/13 05:35:31;;;;;;;;;;;26.50;70.30;;;;;;5024791;28;43094;-78
2023/09/13 05:37:57;;;;;;;;;;;28.10;72.10;;;;;;5024846;28;42914;-79
2023/09/13 05:40:22;;;;;;;;;;;26.40;70.30;;;;;;5024739;28;43615;-78
2023/09/13 05:42:48;;;;;;;;;;;26.40;71.00;;;;;;5024965;28;43019;-80
2023/09/13 05:45:13;;;;;;;;;;;26.40;70.40;;;;;;5024793;28;43504;-79
2023/09/13 05:47:39;;;;;;;;;;;26.40;71.40;;;;;;5020188;28;42938;-79
2023/09/13 05:50:04;;;;;;;;;;;26.70;71.00;;;;;;5022734;28;42985;-79
2023/09/13 05:52:33;;;;;;;;;;;26.50;69.70;;;;;;5023926;28;43109;-79
2023/09/13 05:54:58;;;;;;;;;;;26.50;70.20;;;;;;5023222;28;43029;-79
2023/09/13 05:57:24;;;;;;;;;;;26.70;70.10;;;;;;5023724;28;43001;-79
2023/09/13 05:59:49;;;;;;;;;;;26.70;70.70;;;;;;5022298;28;43452;-79
2023/09/13 06:02:15;;;;;;;;;;;26.70;70.30;;;;;;5022051;28;42958;-80
2023/09/13 06:04:40;;;;;;;;;;;26.70;69.70;;;;;;5024102;28;43596;-79
2023/09/13 06:07:06;;;;;;;;;;;26.70;70.30;;;;;;5024617;28;42949;-80
2023/09/13 06:09:31;;;;;;;;;;;26.70;70.60;;;;;;5023481;28;43184;-79
2023/09/13 06:11:57;;;;;;;;;;;26.60;70.90;;;;;;5025290;28;43148;-79
2023/09/13 06:14:23;;;;;;;;;;;26.70;71.00;;;;;;5024819;28;42941;-79
2023/09/13 06:16:49;;;;;;;;;;;26.90;70.80;;;;;;5024238;28;42957;-79
2023/09/13 06:19:14;;;;;;;;;;;26.80;69.80;;;;;;5024793;28;43937;-79
2023/09/13 06:21:40;;;;;;;;;;;26.60;70.30;;;;;;5025251;28;43029;-79
2023/09/13 06:24:05;;;;;;;;;;;26.70;70.40;;;;;;5024898;28;43516;-80
2023/09/13 06:26:31;;;;;;;;;;;26.70;70.40;;;;;;5025299;28;42941;-85
2023/09/13 06:28:56;;;;;;;;;;;26.80;70.80;;;;;;5024997;28;43425;-79
2023/09/13 06:31:22;;;;;;;;;;;26.50;70.90;;;;;;5024983;28;43001;-79
2023/09/13 06:33:48;;;;;;;;;;;26.60;70.50;;;;;;5024444;28;42887;-79
2023/09/13 06:36:13;;;;;;;;;;;26.60;71.10;;;;;;5024708;28;43079;-79
2023/09/13 06:38:38;;;;;;;;;;;26.50;70.80;;;;;;5024556;28;43416;-81
2023/09/13 06:41:04;;;;;;;;;;;26.50;71.50;;;;;;5024306;28;43002;-79
2023/09/13 06:43:30;;;;;;;;;;;26.50;71.80;;;;;;5024718;28;43746;-79
2023/09/13 06:45:55;;;;;;;;;;;26.50;71.80;;;;;;5024571;28;42954;-79
2023/09/13 06:48:21;;;;;;;;;;;26.60;72.00;;;;;;5024681;28;43539;-79
2023/09/13 06:50:46;;;;;;;;;;;26.50;71.90;;;;;;5023026;28;42796;-79
2023/09/13 06:53:12;;;;;;;;;;;26.50;71.50;;;;;;5024638;28;42933;-79
2023/09/13 06:55:37;;;;;;;;;;;26.50;72.10;;;;;;5024828;28;42909;-79
2023/09/13 06:58:04;;;;;;;;;;;26.60;72.10;;;;;;5024986;28;43379;-79
2023/09/13 07:00:31;;;;;;;;;;;26.50;71.80;;;;;;5023113;28;60564;-79
2023/09/13 07:02:57;;;;;;;;;;;26.60;71.80;;;;;;5024511;28;43390;-79
2023/09/13 07:05:22;;;;;;;;;;;26.70;71.80;;;;;;5024509;28;42926;-79
2023/09/13 07:07:48;;;;;;;;;;;26.60;71.70;;;;;;5024287;28;43067;-79
2023/09/13 07:10:13;;;;;;;;;;;26.60;71.70;;;;;;5024559;28;42938;-79
2023/09/13 07:12:39;;;;;;;;;;;26.60;71.60;;;;;;5024575;28;43504;-79
2023/09/13 07:15:07;;;;;;;;;;;26.70;71.50;;;;;;5023750;28;43047;-80
2023/09/13 07:17:33;;;;;;;;;;;26.70;70.80;;;;;;5023657;28;43515;-80
2023/09/13 07:19:58;;;;;;;;;;;26.70;71.40;;;;;;5024515;28;42955;-81
2023/09/13 07:22:24;;;;;;;;;;;26.80;71.60;;;;;;5024352;28;42843;-79
2023/09/13 07:24:50;;;;;;;;;;;26.70;71.40;;;;;;5023973;28;42952;-84
2023/09/13 07:27:15;;;;;;;;;;;27.00;71.40;;;;;;5023975;28;43723;-79
2023/09/13 07:29:41;;;;;;;;;;;26.70;70.80;;;;;;5024462;28;43023;-83
2023/09/13 07:32:06;;;;;;;;;;;26.80;71.40;;;;;;5024274;28;42926;-80
2023/09/13 07:34:32;;;;;;;;;;;26.80;71.40;;;;;;5024711;28;42803;-79
2023/09/13 07:36:57;;;;;;;;;;;26.80;71.40;;;;;;5027647;28;44031;-80
2023/09/13 07:39:23;;;;;;;;;;;26.80;71.30;;;;;;5027790;28;42948;-79
2023/09/13 07:41:48;;;;;;;;;;;26.90;72.00;;;;;;5027393;28;42780;-80
2023/09/13 07:44:15;;;;;;;;;;;26.80;72.20;;;;;;5027380;28;43625;-81
2023/09/13 07:46:40;;;;;;;;;;;26.60;71.80;;;;;;5027041;28;43512;-81
2023/09/13 07:49:06;;;;;;;;;;;26.80;72.50;;;;;;5027387;28;42922;-83
2023/09/13 07:51:31;;;;;;;;;;;26.80;72.60;;;;;;5027015;28;43602;-79
2023/09/13 07:54:03;;;;;;;;;;;26.70;72.30;;;;;;5027373;28;43283;-79
2023/09/13 07:56:29;;;;;;;;;;;26.50;72.00;;;;;;5026701;28;43660;-79
2023/09/13 07:58:55;;;;;;;;;;;26.80;72.60;;;;;;5027340;28;42747;-79
2023/09/13 08:01:20;;;;;;;;;;;26.80;72.80;;;;;;5026693;28;43500;-79
2023/09/13 08:03:46;;;;;;;;;;;26.70;72.80;;;;;;5026932;28;42970;-80
2023/09/13 08:06:11;;;;;;;;;;;26.90;72.90;;;;;;5026627;28;42904;-79
2023/09/13 08:08:37;;;;;;;;;;;26.90;73.40;;;;;;5025414;28;43089;-79
2023/09/13 08:11:03;;;;;;;;;;;26.70;73.20;;;;;;5026683;28;42934;-79
2023/09/13 08:13:28;;;;;;;;;;;26.80;73.10;;;;;;5026942;28;42907;-85
2023/09/13 08:15:54;;;;;;;;;;;26.90;73.30;;;;;;5026598;28;42826;-79
2023/09/13 08:18:20;;;;;;;;;;;27.00;73.40;;;;;;5027204;28;42981;-79
2023/09/13 08:20:45;;;;;;;;;;;26.90;73.50;;;;;;5026850;28;42843;-79
2023/09/13 08:23:11;;;;;;;;;;;26.90;73.50;;;;;;5026763;28;43008;-81
2023/09/13 08:25:36;;;;;;;;;;;26.80;73.10;;;;;;5027203;28;43535;-79
2023/09/13 08:28:03;;;;;;;;;;;26.70;72.80;;;;;;5026649;28;42958;-86
2023/09/13 08:30:29;;;;;;;;;;;26.80;72.60;;;;;;5026497;28;43527;-79
2023/09/13 08:32:55;;;;;;;;;;;26.90;72.90;;;;;;5026640;28;42972;-83
2023/09/13 08:35:20;;;;;;;;;;;26.90;72.20;;;;;;5026432;28;43614;-79
2023/09/13 08:37:47;;;;;;;;;;;26.90;72.40;;;;;;5026428;28;42934;-79
2023/09/13 08:40:13;;;;;;;;;;;26.90;72.30;;;;;;5026531;28;43489;-86
2023/09/13 08:42:42;;;;;;;;;;;26.80;73.10;;;;;;5026676;28;42831;-85
2023/09/13 08:45:09;;;;;;;;;;;26.80;70.90;;;;;;5026566;28;44028;-79
2023/09/13 08:47:38;;;;;;;;;;;26.70;72.90;;;;;;5026641;28;42971;-79
2023/09/13 08:50:05;;;;;;;;;;;26.90;73.60;;;;;;5025844;28;43556;-79
2023/09/13 08:52:31;;;;;;;;;;;26.80;73.10;;;;;;5025710;28;43008;-79
2023/09/13 08:54:57;;;;;;;;;;;26.80;73.70;;;;;;5025836;28;43675;-79
2023/09/13 08:57:24;;;;;;;;;;;26.70;73.80;;;;;;5025989;28;42812;-79
2023/09/13 08:59:50;;;;;;;;;;;26.90;74.00;;;;;;5025635;28;42903;-79
2023/09/13 09:02:17;;;;;;;;;;;26.80;74.00;;;;;;5026159;28;42817;-79
2023/09/13 09:04:43;;;;;;;;;;;26.70;73.90;;;;;;5025935;28;42954;-78
2023/09/13 09:07:09;;;;;;;;;;;26.90;74.30;;;;;;5026184;28;43149;-79
2023/09/13 09:09:35;;;;;;;;;;;26.90;73.70;;;;;;5025873;28;42926;-79
2023/09/13 09:12:02;;;;;;;;;;;27.10;73.10;;;;;;5025440;28;42981;-80
2023/09/13 09:14:31;;;;;;;;;;;26.90;73.30;;;;;;5025936;28;43428;-81
2023/09/13 09:16:58;;;;;;;;;;;27.10;71.20;;;;;;5025835;28;43156;-84
2023/09/13 09:19:24;;;;;;;;;;;26.90;73.70;;;;;;5025738;28;43598;-86
2023/09/13 09:21:49;;;;;;;;;;;27.00;73.80;;;;;;5025374;28;43037;-80
2023/09/13 09:24:15;;;;;;;;;;;26.80;73.90;;;;;;5025854;28;43003;-82
2023/09/13 09:26:40;;;;;;;;;;;26.80;74.00;;;;;;5024184;28;42899;-83
2023/09/13 09:29:09;;;;;;;;;;;26.90;74.30;;;;;;5025903;28;42899;-86
2023/09/13 09:31:35;;;;;;;;;;;27.00;72.10;;;;;;5025546;28;42989;-85
2023/09/13 09:34:02;;;;;;;;;;;26.80;74.10;;;;;;5025731;28;43003;-83
2023/09/13 09:36:34;;;;;;;;;;;27.20;74.40;;;;;;5024309;28;42885;-86
2023/09/13 09:39:03;;;;;;;;;;;27.00;74.20;;;;;;5023880;28;44510;-79
2023/09/13 09:41:36;;;;;;;;;;;26.90;71.80;;;;;;5025565;28;42835;-79
2023/09/13 09:44:05;;;;;;;;;;;27.00;71.60;;;;;;5025556;28;43605;-79
2023/09/13 09:46:31;;;;;;;;;;;27.00;71.40;;;;;;5024363;28;42907;-80
2023/09/13 09:48:56;;;;;;;;;;;27.00;74.00;;;;;;5026228;28;43735;-81
2023/09/13 09:51:22;;;;;;;;;;;27.00;74.10;;;;;;5025725;28;43029;-79
2023/09/13 09:53:48;;;;;;;;;;;27.20;74.20;;;;;;5026033;28;42759;-80
2023/09/13 09:56:17;;;;;;;;;;;26.90;74.10;;;;;;5026320;28;42846;-80
2023/09/13 09:58:45;;;;;;;;;;;27.10;72.00;;;;;;5025512;28;43597;-80
2023/09/13 10:01:16;;;;;;;;;;;26.90;74.30;;;;;;5025556;28;42945;-86
2023/09/13 10:03:42;;;;;;;;;;;26.90;72.50;;;;;;5025785;28;43572;-85
2023/09/13 10:06:09;;;;;;;;;;;26.80;74.00;;;;;;5025419;28;42943;-82
2023/09/13 10:08:41;;;;;;;;;;;27.00;74.20;;;;;;5025317;28;42920;-80
2023/09/13 10:11:08;;;;;;;;;;;27.00;71.90;;;;;;5024922;28;43310;-79
2023/09/13 10:13:33;;;;;;;;;;;27.00;74.20;;;;;;5025434;28;43423;-82
2023/09/13 10:16:02;;;;;;;;;;;27.00;73.30;;;;;;5025090;28;42945;-80
2023/09/13 10:18:30;;;;;;;;;;;27.00;71.20;;;;;;5024739;28;42965;-79
2023/09/13 10:20:56;;;;;;;;;;;26.90;73.50;;;;;;5025778;28;42917;-85
2023/09/13 10:23:24;;;;;;;;;;;26.80;73.30;;;;;;5025425;28;43585;-80
2023/09/13 10:25:49;;;;;;;;;;;26.90;73.20;;;;;;5024088;28;42961;-79
2023/09/13 10:28:16;;;;;;;;;;;27.10;73.00;;;;;;5025247;28;43492;-84
2023/09/13 10:30:45;;;;;;;;;;;27.10;73.30;;;;;;5024858;28;42887;-84
2023/09/13 10:33:12;;;;;;;;;;;27.00;73.20;;;;;;5024545;28;42831;-84
2023/09/13 10:35:40;;;;;;;;;;;27.10;73.20;;;;;;5024952;28;42839;-81
2023/09/13 10:38:12;;;;;;;;;;;27.10;73.20;;;;;;5024881;28;43608;-80
2023/09/13 10:40:39;;;;;;;;;;;27.00;70.60;;;;;;5024258;28;43010;-82
2023/09/13 10:43:05;;;;;;;;;;;26.90;72.90;;;;;;5024093;28;43568;-79
2023/09/13 10:45:31;;;;;;;;;;;27.10;73.20;;;;;;5024621;28;42884;-83
2023/09/13 10:47:58;;;;;;;;;;;27.00;72.90;;;;;;5024575;28;43318;-80
2023/09/13 10:50:24;;;;;;;;;;;26.90;72.70;;;;;;5024863;28;42927;-80
2023/09/13 10:52:49;;;;;;;;;;;27.10;72.70;;;;;;5024488;28;43512;-80
2023/09/13 10:55:15;;;;;;;;;;;27.00;72.70;;;;;;5024957;28;42974;-83
2023/09/13 10:57:41;;;;;;;;;;;27.10;72.70;;;;;;5024685;28;42840;-79
2023/09/13 11:00:12;;;;;;;;;;;27.30;72.80;;;;;;5024861;28;42880;-86
2023/09/13 11:02:38;;;;;;;;;;;27.10;71.60;;;;;;5024505;28;43376;-84
2023/09/13 11:05:04;;;;;;;;;;;27.10;72.80;;;;;;5024207;28;42960;-81
2023/09/13 11:07:31;;;;;;;;;;;27.00;72.40;;;;;;5023848;28;43730;-83
2023/09/13 11:10:04;;;;;;;;;;;27.10;72.30;;;;;;5025894;28;42953;-84
2023/09/13 11:12:33;;;;;;;;;;;26.90;70.20;;;;;;5028015;28;43651;-80
2023/09/13 11:15:10;;;;;;;;;;;27.10;72.90;;;;;;5027514;28;43107;-85
2023/09/13 11:17:37;;;;;;;;;;;27.20;72.90;;;;;;5027528;28;43387;-79
2023/09/13 11:20:22;;;;;;;;;;;27.10;72.80;;;;;;5027296;28;42922;-79
2023/09/13 11:23:10;;;;;;;;;;;27.10;70.10;;;;;;5026479;28;43358;-79
2023/09/13 11:25:36;;;;;;;;;;;27.10;70.00;;;;;;5027221;28;42906;-80
2023/09/13 11:28:05;;;;;;;;;;;27.10;72.70;;;;;;5026313;28;43476;-80
2023/09/13 11:30:49;;;;;;;;;;;27.20;70.50;;;;;;5027938;28;42985;-83
2023/09/13 11:33:15;;;;;;;;;;;27.10;70.20;;;;;;5027774;28;42911;-79
2023/09/13 11:35:42;;;;;;;;;;;27.30;72.30;;;;;;5028078;28;43054;-79
2023/09/13 11:38:08;;;;;;;;;;;27.20;72.80;;;;;;5027670;28;43267;-80
2023/09/13 11:40:34;;;;;;;;;;;27.00;72.70;;;;;;5028191;28;42940;-80
2023/09/13 11:43:00;;;;;;;;;;;27.10;72.00;;;;;;5027811;28;42753;-79
2023/09/13 11:45:30;;;;;;;;;;;27.10;71.80;;;;;;5027540;28;42882;-79
2023/09/13 11:47:55;;;;;;;;;;;27.40;69.90;;;;;;5026955;28;43749;-79
2023/09/13 11:50:21;;;;;;;;;;;27.10;71.60;;;;;;5027527;28;42830;-81
2023/09/13 11:53:06;;;;;;;;;;;27.00;71.20;;;;;;5027089;28;42862;-79
2023/09/13 11:55:31;;;;;;;;;;;27.10;67.70;;;;;;5027219;28;42977;-79
2023/09/13 11:57:57;;;;;;;;;;;27.00;71.00;;;;;;5027257;28;43853;-79
2023/09/13 12:00:25;;;;;;;;;;;26.90;70.90;;;;;;5027035;28;42943;-79
2023/09/13 12:02:50;;;;;;;;;;;27.00;70.80;;;;;;5027030;28;43485;-86
2023/09/13 12:05:16;;;;;;;;;;;27.10;70.40;;;;;;5027431;28;42898;-79
2023/09/13 12:07:42;;;;;;;;;;;27.00;70.00;;;;;;5026955;28;43121;-79
2023/09/13 12:10:07;;;;;;;;;;;27.10;69.10;;;;;;5026751;28;42968;-79
2023/09/13 12:12:39;;;;;;;;;;;27.10;69.40;;;;;;5026366;28;42895;-79
2023/09/13 12:15:05;;;;;;;;;;;27.00;66.60;;;;;;5026758;28;43323;-79
2023/09/13 12:17:37;;;;;;;;;;;26.80;68.70;;;;;;5026525;28;42872;-79
2023/09/13 12:20:05;;;;;;;;;;;27.00;67.00;;;;;;5025969;28;42924;-79
2023/09/13 12:22:37;;;;;;;;;;;26.80;68.90;;;;;;5025915;28;43583;-79
2023/09/13 12:25:04;;;;;;;;;;;26.90;69.30;;;;;;5027232;28;42938;-79
2023/09/13 12:27:30;;;;;;;;;;;26.80;68.70;;;;;;5026699;28;43538;-79
2023/09/13 12:29:55;;;;;;;;;;;27.00;69.40;;;;;;5026915;28;42886;-79
2023/09/13 12:32:21;;;;;;;;;;;27.10;69.30;;;;;;5026158;28;43451;-79
2023/09/13 12:34:47;;;;;;;;;;;27.00;69.30;;;;;;5026917;28;43046;-79
2023/09/13 12:37:13;;;;;;;;;;;27.10;69.00;;;;;;5026865;28;42870;-79
2023/09/13 12:39:39;;;;;;;;;;;27.10;68.90;;;;;;5026471;28;42995;-79
2023/09/13 12:42:06;;;;;;;;;;;27.10;69.20;;;;;;5026823;28;43631;-80
2023/09/13 12:44:32;;;;;;;;;;;27.00;69.20;;;;;;5026788;28;43018;-79
2023/09/13 12:46:58;;;;;;;;;;;27.00;69.30;;;;;;5026663;28;43349;-79
2023/09/13 12:49:24;;;;;;;;;;;27.10;68.00;;;;;;5026524;28;42957;-79
2023/09/13 12:51:51;;;;;;;;;;;26.90;68.40;;;;;;5026374;28;42831;-79
2023/09/13 12:54:16;;;;;;;;;;;27.10;68.70;;;;;;5026715;28;42939;-80
2023/09/13 12:56:42;;;;;;;;;;;27.00;69.00;;;;;;5026191;28;43064;-84
2023/09/13 12:59:08;;;;;;;;;;;27.20;68.40;;;;;;5026715;28;42949;-80
2023/09/13 13:01:35;;;;;;;;;;;27.10;68.20;;;;;;5026075;28;42958;-79
2023/09/13 13:04:06;;;;;;;;;;;27.20;67.90;;;;;;5026459;28;42842;-79
2023/09/13 13:06:36;;;;;;;;;;;27.10;65.50;;;;;;5026051;28;42914;-79
2023/09/13 13:09:05;;;;;;;;;;;27.00;67.50;;;;;;5026092;28;43704;-80
2023/09/13 13:11:40;;;;;;;;;;;27.00;67.80;;;;;;5026402;28;42992;-79
2023/09/13 13:14:12;;;;;;;;;;;27.10;65.30;;;;;;5024665;28;43313;-80
2023/09/13 13:16:37;;;;;;;;;;;27.00;65.20;;;;;;5025590;28;43013;-79
2023/09/13 13:19:03;;;;;;;;;;;27.00;67.90;;;;;;5025430;28;42999;-79
2023/09/13 13:21:29;;;;;;;;;;;27.10;68.00;;;;;;5025730;28;43486;-80
2023/09/13 13:23:54;;;;;;;;;;;27.10;67.90;;;;;;5026161;28;43602;-79
2023/09/13 13:26:21;;;;;;;;;;;27.00;67.70;;;;;;5025978;28;43718;-79
2023/09/13 13:28:47;;;;;;;;;;;27.00;67.70;;;;;;5025744;28;43015;-82
2023/09/13 13:31:13;;;;;;;;;;;27.20;67.40;;;;;;5025688;28;42956;-86
2023/09/13 13:33:39;;;;;;;;;;;27.20;67.60;;;;;;5024706;28;42990;-79
2023/09/13 13:36:05;;;;;;;;;;;27.10;67.50;;;;;;5025095;28;42886;-79
2023/09/13 13:38:31;;;;;;;;;;;27.10;67.30;;;;;;5025799;28;43081;-80
2023/09/13 13:41:06;;;;;;;;;;;27.10;67.30;;;;;;5025964;28;43435;-86
2023/09/13 13:43:33;;;;;;;;;;;27.10;64.90;;;;;;5025872;28;42871;-79
2023/09/13 13:46:02;;;;;;;;;;;27.20;67.50;;;;;;5025727;28;42993;-79
2023/09/13 13:48:32;;;;;;;;;;;27.20;67.40;;;;;;5025307;28;43092;-79
2023/09/13 13:50:58;;;;;;;;;;;27.10;67.40;;;;;;5023736;28;43996;-80
2023/09/13 13:53:26;;;;;;;;;;;27.10;67.40;;;;;;5025657;28;42985;-80
2023/09/13 13:55:58;;;;;;;;;;;27.10;65.20;;;;;;5023829;28;44029;-79
2023/09/13 13:58:24;;;;;;;;;;;27.00;64.70;;;;;;5025168;28;42941;-79
2023/09/13 14:00:53;;;;;;;;;;;27.00;66.80;;;;;;5025459;28;42946;-79
2023/09/13 14:03:19;;;;;;;;;;;27.20;67.50;;;;;;5025728;28;42952;-79
2023/09/13 14:05:44;;;;;;;;;;;27.00;67.60;;;;;;5024917;28;44242;-86
2023/09/13 14:08:10;;;;;;;;;;;27.00;67.60;;;;;;5025052;28;43031;-80
2023/09/13 14:10:40;;;;;;;;;;;27.10;67.60;;;;;;5025426;28;42859;-79
2023/09/13 14:13:06;;;;;;;;;;;27.10;67.20;;;;;;5025294;28;42784;-83